Time;durP1;ratioP1;P1;durP2;ratioP2;P2;SDS_P1;SDS_P2;PMS_P1;PMS_P2;Temp;Humidity;BMP_temperature;BMP_pressure;BME280_temperature;BME280_humidity;BME280_pressure;Samples;Min_cycle;Max_cycle;Signal;HPM_P1;HPM_P2
2021/06/08 00:01:00;;;;;;;18.37;16.37;;;;;;;;;;5051866;28;20868;-53
2021/06/08 00:03:26;;;;;;;18.90;16.47;;;;;;;;;;5051734;28;20401;-54
2021/06/08 00:05:52;;;;;;;21.93;16.83;;;;;;;;;;5051799;28;20379;-53
2021/06/08 00:08:18;;;;;;;25.00;18.30;;;;;;;;;;5051896;28;20378;-52
2021/06/08 00:10:44;;;;;;;22.80;16.63;;;;;;;;;;5051851;28;20377;-53
2021/06/08 00:13:10;;;;;;;21.80;19.50;;;;;;;;;;5051638;28;20479;-53
2021/06/08 00:15:36;;;;;;;24.27;18.57;;;;;;;;;;5051628;28;20453;-53
2021/06/08 00:18:02;;;;;;;27.20;18.70;;;;;;;;;;5051788;28;20384;-53
2021/06/08 00:20:29;;;;;;;21.13;18.40;;;;;;;;;;5051600;28;20399;-53
2021/06/08 00:22:55;;;;;;;20.33;18.20;;;;;;;;;;5051490;28;20484;-54
2021/06/08 00:25:21;;;;;;;21.87;17.50;;;;;;;;;;5051786;28;20422;-53
2021/06/08 00:27:47;;;;;;;23.20;16.67;;;;;;;;;;5051675;28;20413;-53
2021/06/08 00:30:13;;;;;;;20.10;17.77;;;;;;;;;;5051641;28;20403;-53
2021/06/08 00:32:40;;;;;;;19.80;17.63;;;;;;;;;;5051421;28;20440;-53
2021/06/08 00:35:06;;;;;;;19.60;17.70;;;;;;;;;;4496196;28;15041403;-53
2021/06/08 00:37:32;;;;;;;26.87;19.23;;;;;;;;;;5051290;28;20269;-54
2021/06/08 00:39:58;;;;;;;21.73;18.93;;;;;;;;;;5052453;28;21165;-53
2021/06/08 00:42:30;;;;;;;23.97;21.10;;;;;;;;;;5052133;28;20406;-53
2021/06/08 00:44:56;;;;;;;34.97;21.13;;;;;;;;;;5052342;28;20398;-54
2021/06/08 00:47:22;;;;;;;26.57;20.87;;;;;;;;;;5052278;28;20463;-54
2021/06/08 00:49:48;;;;;;;26.43;18.40;;;;;;;;;;5052284;28;20395;-54
2021/06/08 00:52:15;;;;;;;23.57;17.63;;;;;;;;;;5052144;28;20418;-54
2021/06/08 00:54:41;;;;;;;24.30;17.60;;;;;;;;;;5052130;28;20424;-53
2021/06/08 00:57:07;;;;;;;20.93;18.57;;;;;;;;;;5051947;28;20379;-53
2021/06/08 00:59:33;;;;;;;20.00;17.27;;;;;;;;;;5051972;28;20403;-53
2021/06/08 01:01:59;;;;;;;20.27;18.17;;;;;;;;;;5051104;28;20398;-53
2021/06/08 01:04:25;;;;;;;21.37;19.17;;;;;;;;;;5050532;28;20406;-54
2021/06/08 01:06:51;;;;;;;19.83;17.83;;;;;;;;;;5051545;28;20888;-54
2021/06/08 01:09:17;;;;;;;36.73;18.30;;;;;;;;;;5051768;28;20878;-53
2021/06/08 01:11:43;;;;;;;18.17;16.37;;;;;;;;;;5051454;28;20455;-53
2021/06/08 01:14:09;;;;;;;18.73;16.13;;;;;;;;;;5051621;28;20449;-53
2021/06/08 01:16:35;;;;;;;18.13;15.10;;;;;;;;;;5051702;28;20503;-54
2021/06/08 01:19:02;;;;;;;15.90;14.20;;;;;;;;;;5051564;28;20418;-53
2021/06/08 01:21:28;;;;;;;15.77;14.10;;;;;;;;;;5051483;28;20393;-53
2021/06/08 01:23:55;;;;;;;15.23;13.70;;;;;;;;;;5051463;28;20406;-54
2021/06/08 01:26:23;;;;;;;16.60;13.50;;;;;;;;;;5051544;28;20429;-53
2021/06/08 01:28:51;;;;;;;17.10;14.23;;;;;;;;;;5051324;28;20515;-53
2021/06/08 01:31:19;;;;;;;13.80;12.20;;;;;;;;;;5051288;28;20453;-53
2021/06/08 01:33:46;;;;;;;19.40;13.03;;;;;;;;;;5051077;28;20868;-54
2021/06/08 01:36:13;;;;;;;14.87;12.70;;;;;;;;;;5051424;28;20383;-53
2021/06/08 01:38:40;;;;;;;15.30;13.77;;;;;;;;;;5051153;28;20516;-53
2021/06/08 01:41:06;;;;;;;17.30;13.67;;;;;;;;;;5051267;28;21016;-54
2021/06/08 01:43:32;;;;;;;17.53;13.73;;;;;;;;;;5050911;28;20492;-53
2021/06/08 01:45:58;;;;;;;16.23;13.13;;;;;;;;;;5051267;28;20828;-53
2021/06/08 01:48:24;;;;;;;14.37;13.03;;;;;;;;;;5051058;28;20471;-53
2021/06/08 01:50:50;;;;;;;17.20;13.77;;;;;;;;;;5051155;28;20777;-54
2021/06/08 01:53:23;;;;;;;16.20;13.30;;;;;;;;;;5050766;28;20373;-53
2021/06/08 01:55:52;;;;;;;13.33;11.80;;;;;;;;;;5050944;28;20423;-54
2021/06/08 01:58:26;;;;;;;14.00;12.60;;;;;;;;;;5050813;28;20455;-54
2021/06/08 02:00:55;;;;;;;15.50;12.30;;;;;;;;;;5051099;28;21005;-53
2021/06/08 02:03:28;;;;;;;17.60;13.10;;;;;;;;;;5050616;28;20433;-53
2021/06/08 02:05:58;;;;;;;13.63;11.90;;;;;;;;;;5050847;28;20375;-53
2021/06/08 02:08:30;;;;;;;16.90;12.03;;;;;;;;;;5050683;28;20965;-54
2021/06/08 02:11:19;;;;;;;15.23;12.90;;;;;;;;;;5050853;28;20444;-53
2021/06/08 02:14:01;;;;;;;15.37;13.73;;;;;;;;;;5050549;28;20388;-53
2021/06/08 02:16:37;;;;;;;14.83;12.20;;;;;;;;;;5050644;28;20468;-53
2021/06/08 02:19:04;;;;;;;15.13;13.53;;;;;;;;;;5050549;28;20495;-53
2021/06/08 02:21:31;;;;;;;15.80;13.70;;;;;;;;;;5050557;28;20383;-53
2021/06/08 02:23:58;;;;;;;13.73;12.43;;;;;;;;;;5050472;28;20496;-53
2021/06/08 02:26:25;;;;;;;15.80;13.90;;;;;;;;;;5050739;28;20376;-52
2021/06/08 02:28:51;;;;;;;13.77;12.37;;;;;;;;;;5050520;28;20428;-54
2021/06/08 02:31:18;;;;;;;13.90;11.77;;;;;;;;;;5050627;28;20484;-53
2021/06/08 02:33:47;;;;;;;18.43;12.60;;;;;;;;;;5050483;28;20380;-54
2021/06/08 02:36:13;;;;;;;18.60;15.97;;;;;;;;;;5050759;28;21065;-52
2021/06/08 02:38:39;;;;;;;17.80;15.67;;;;;;;;;;5050989;28;20388;-54
2021/06/08 02:41:06;;;;;;;17.67;14.83;;;;;;;;;;5050534;28;20478;-53
2021/06/08 02:43:32;;;;;;;19.63;13.67;;;;;;;;;;5050019;28;20895;-53
2021/06/08 02:45:59;;;;;;;23.60;20.00;;;;;;;;;;5050603;28;20774;-52
2021/06/08 02:48:25;;;;;;;25.50;20.10;;;;;;;;;;5050470;28;20380;-53
2021/06/08 02:50:51;;;;;;;25.63;16.93;;;;;;;;;;5050306;28;20368;-53
2021/06/08 02:53:18;;;;;;;26.90;19.73;;;;;;;;;;5050217;28;20405;-53
2021/06/08 02:55:44;;;;;;;26.90;22.90;;;;;;;;;;5050200;28;20415;-55
2021/06/08 02:58:11;;;;;;;27.40;21.67;;;;;;;;;;5050249;28;20388;-55
2021/06/08 03:00:37;;;;;;;25.30;19.93;;;;;;;;;;5050264;28;20476;-53
2021/06/08 03:03:05;;;;;;;19.83;17.93;;;;;;;;;;5050320;28;20789;-55
2021/06/08 03:05:33;;;;;;;27.77;19.40;;;;;;;;;;5050189;28;20380;-53
2021/06/08 03:08:05;;;;;;;31.57;22.40;;;;;;;;;;5050248;28;20959;-53
2021/06/08 03:10:34;;;;;;;31.13;20.27;;;;;;;;;;5050050;28;20420;-54
2021/06/08 03:13:01;;;;;;;26.07;21.60;;;;;;;;;;5050022;28;20482;-52
2021/06/08 03:15:38;;;;;;;24.87;20.70;;;;;;;;;;5050022;28;20427;-53
2021/06/08 03:18:08;;;;;;;21.60;18.40;;;;;;;;;;5050193;28;20381;-53
2021/06/08 03:20:37;;;;;;;24.80;20.73;;;;;;;;;;5050073;28;20371;-52
2021/06/08 03:23:05;;;;;;;22.40;20.00;;;;;;;;;;5049845;28;20841;-53
2021/06/08 03:25:33;;;;;;;27.43;22.37;;;;;;;;;;5050019;28;20397;-53
2021/06/08 03:28:02;;;;;;;24.83;20.27;;;;;;;;;;5051031;28;20439;-53
2021/06/08 03:30:29;;;;;;;26.73;22.23;;;;;;;;;;5053550;28;20432;-52
2021/06/08 03:32:56;;;;;;;29.47;21.60;;;;;;;;;;5053528;28;20444;-52
2021/06/08 03:35:22;;;;;;;24.97;21.63;;;;;;;;;;5053436;28;20464;-54
2021/06/08 03:37:48;;;;;;;21.50;18.70;;;;;;;;;;5053619;28;20426;-54
2021/06/08 03:40:16;;;;;;;24.10;19.23;;;;;;;;;;5053438;28;20403;-54
2021/06/08 03:42:42;;;;;;;22.20;19.67;;;;;;;;;;5053318;28;20402;-54
2021/06/08 03:45:16;;;;;;;24.47;20.80;;;;;;;;;;5053465;28;20932;-54
2021/06/08 03:47:42;;;;;;;33.00;20.40;;;;;;;;;;5053548;28;20387;-53
2021/06/08 03:50:11;;;;;;;21.30;18.63;;;;;;;;;;5053190;28;21111;-53
2021/06/08 03:52:37;;;;;;;25.63;21.90;;;;;;;;;;5052646;28;20388;-53
2021/06/08 03:55:05;;;;;;;25.87;21.00;;;;;;;;;;5053088;28;20831;-53
2021/06/08 03:57:39;;;;;;;20.83;18.80;;;;;;;;;;5053346;28;20397;-53
2021/06/08 04:00:05;;;;;;;22.83;18.93;;;;;;;;;;5052100;28;20762;-52
2021/06/08 04:02:31;;;;;;;26.60;20.40;;;;;;;;;;5052870;28;20894;-53
2021/06/08 04:05:00;;;;;;;22.40;19.67;;;;;;;;;;5053141;28;20369;-54
2021/06/08 04:07:26;;;;;;;24.43;19.43;;;;;;;;;;5052179;28;20411;-52
2021/06/08 04:09:52;;;;;;;21.60;17.97;;;;;;;;;;5052447;28;20396;-52
2021/06/08 04:12:22;;;;;;;25.17;18.00;;;;;;;;;;5052146;28;20914;-52
2021/06/08 04:14:49;;;;;;;21.80;18.30;;;;;;;;;;5052689;28;20566;-52
2021/06/08 04:17:15;;;;;;;23.93;19.80;;;;;;;;;;5052770;28;20462;-52
2021/06/08 04:19:45;;;;;;;19.63;17.53;;;;;;;;;;5052968;28;20392;-54
2021/06/08 04:22:11;;;;;;;20.90;18.17;;;;;;;;;;5052549;28;20737;-52
2021/06/08 04:24:40;;;;;;;20.67;18.33;;;;;;;;;;5052876;28;20414;-52
2021/06/08 04:27:06;;;;;;;22.10;18.17;;;;;;;;;;5052717;28;20399;-55
2021/06/08 04:29:33;;;;;;;20.10;17.30;;;;;;;;;;5052762;28;20407;-55
2021/06/08 04:32:00;;;;;;;19.00;16.80;;;;;;;;;;5052345;28;20376;-52
2021/06/08 04:34:26;;;;;;;19.10;17.00;;;;;;;;;;5052446;28;20462;-52
2021/06/08 04:36:52;;;;;;;22.93;18.00;;;;;;;;;;5052545;28;20405;-54
2021/06/08 04:39:18;;;;;;;19.20;17.20;;;;;;;;;;5051669;28;20470;-56
2021/06/08 04:41:45;;;;;;;18.07;16.20;;;;;;;;;;5052273;28;20433;-54
2021/06/08 04:44:16;;;;;;;21.70;15.30;;;;;;;;;;5052418;28;20399;-52
2021/06/08 04:46:43;;;;;;;18.90;17.00;;;;;;;;;;5052536;28;20541;-52
2021/06/08 04:49:15;;;;;;;18.33;16.30;;;;;;;;;;5052317;28;20392;-52
2021/06/08 04:51:41;;;;;;;20.23;17.27;;;;;;;;;;5052010;28;20877;-52
2021/06/08 04:54:07;;;;;;;24.07;19.93;;;;;;;;;;5052337;28;20441;-52
2021/06/08 04:56:33;;;;;;;24.73;21.87;;;;;;;;;;5052054;28;20398;-53
2021/06/08 05:02:05;;;;;;;20.00;17.90;;;;;;;;;;5050905;28;20384;-54
2021/06/08 05:04:32;;;;;;;27.90;22.20;;;;;;;;;;5051966;28;20403;-55
2021/06/08 05:07:00;;;;;;;26.07;18.93;;;;;;;;;;5051867;28;20372;-52
2021/06/08 05:09:30;;;;;;;28.33;19.20;;;;;;;;;;5051807;28;20486;-53
2021/06/08 05:11:58;;;;;;;28.70;22.23;;;;;;;;;;5051628;28;20395;-52
2021/06/08 05:14:26;;;;;;;29.13;22.70;;;;;;;;;;5051767;28;20946;-53
2021/06/08 05:16:53;;;;;;;27.40;24.43;;;;;;;;;;5051592;28;20433;-52
2021/06/08 05:19:19;;;;;;;34.37;25.80;;;;;;;;;;5051714;28;20411;-54
2021/06/08 05:21:46;;;;;;;34.30;25.03;;;;;;;;;;5051513;28;20408;-53
2021/06/08 05:24:13;;;;;;;34.00;25.57;;;;;;;;;;5051464;28;20401;-53
2021/06/08 05:26:41;;;;;;;35.57;26.70;;;;;;;;;;5051629;28;20567;-54
2021/06/08 05:29:08;;;;;;;33.50;26.30;;;;;;;;;;5051384;28;20403;-54
2021/06/08 05:31:37;;;;;;;34.20;26.73;;;;;;;;;;5051294;28;20920;-55
2021/06/08 05:34:03;;;;;;;36.70;26.73;;;;;;;;;;5051077;28;20887;-52
2021/06/08 05:36:41;;;;;;;39.23;25.90;;;;;;;;;;5051380;28;20404;-53
2021/06/08 05:39:08;;;;;;;37.70;26.30;;;;;;;;;;5051190;28;20421;-53
2021/06/08 05:41:35;;;;;;;35.63;26.70;;;;;;;;;;5051142;28;20375;-54
2021/06/08 05:44:05;;;;;;;35.23;27.33;;;;;;;;;;5051071;28;20376;-53
2021/06/08 05:46:37;;;;;;;31.73;24.87;;;;;;;;;;5051240;28;20402;-53
2021/06/08 05:49:05;;;;;;;40.77;26.57;;;;;;;;;;5051003;28;20904;-54
2021/06/08 05:51:32;;;;;;;37.73;27.47;;;;;;;;;;5050635;28;20372;-52
2021/06/08 05:53:58;;;;;;;33.83;26.63;;;;;;;;;;5050818;28;20860;-53
2021/06/08 05:56:25;;;;;;;30.93;26.90;;;;;;;;;;5051141;28;20753;-52
2021/06/08 05:58:54;;;;;;;30.40;24.27;;;;;;;;;;5050866;28;20444;-53
2021/06/08 06:01:23;;;;;;;36.17;28.00;;;;;;;;;;5050769;28;20459;-53
2021/06/08 06:03:50;;;;;;;31.60;24.87;;;;;;;;;;5050795;28;20783;-52
2021/06/08 06:06:17;;;;;;;33.53;27.20;;;;;;;;;;5050939;28;20488;-52
2021/06/08 06:08:44;;;;;;;31.33;24.97;;;;;;;;;;5050745;28;20425;-52
2021/06/08 06:11:13;;;;;;;30.90;23.27;;;;;;;;;;5050897;28;20414;-55
2021/06/08 06:13:43;;;;;;;30.43;24.87;;;;;;;;;;5050603;28;20479;-52
2021/06/08 06:16:10;;;;;;;27.37;24.47;;;;;;;;;;5050804;28;20398;-55
2021/06/08 06:18:38;;;;;;;36.30;27.50;;;;;;;;;;5050548;28;20420;-54
2021/06/08 06:21:06;;;;;;;29.10;25.83;;;;;;;;;;5050769;28;20890;-54
2021/06/08 06:23:34;;;;;;;29.93;24.90;;;;;;;;;;5050424;28;20514;-52
2021/06/08 06:26:01;;;;;;;31.30;25.80;;;;;;;;;;5050849;28;20398;-52
2021/06/08 06:28:27;;;;;;;31.83;25.20;;;;;;;;;;5050481;28;20457;-52
2021/06/08 06:30:56;;;;;;;31.57;24.20;;;;;;;;;;5050802;28;20372;-52
2021/06/08 06:33:23;;;;;;;30.53;24.03;;;;;;;;;;5050501;28;20911;-53
2021/06/08 06:35:53;;;;;;;28.80;24.70;;;;;;;;;;5050525;28;20958;-53
2021/06/08 06:38:21;;;;;;;31.57;25.87;;;;;;;;;;5050407;28;20393;-53
2021/06/08 06:40:48;;;;;;;30.43;25.10;;;;;;;;;;5050454;28;20780;-55
2021/06/08 06:43:15;;;;;;;27.90;24.63;;;;;;;;;;5050281;28;20467;-52
2021/06/08 06:45:42;;;;;;;32.30;23.23;;;;;;;;;;5049465;28;20406;-54
2021/06/08 06:48:13;;;;;;;33.63;23.77;;;;;;;;;;5048548;28;20492;-53
2021/06/08 06:50:40;;;;;;;30.53;23.60;;;;;;;;;;5050568;28;20765;-53
2021/06/08 06:53:09;;;;;;;29.47;23.60;;;;;;;;;;5051281;28;20946;-52
2021/06/08 06:55:35;;;;;;;28.47;23.33;;;;;;;;;;5048989;28;20476;-52
2021/06/08 06:58:01;;;;;;;27.17;22.43;;;;;;;;;;5050180;28;20772;-52
2021/06/08 07:00:31;;;;;;;29.70;20.63;;;;;;;;;;5050053;28;20503;-52
2021/06/08 07:02:58;;;;;;;23.80;20.10;;;;;;;;;;5050979;28;20401;-52
2021/06/08 07:05:27;;;;;;;24.23;20.43;;;;;;;;;;5054209;28;20927;-54
2021/06/08 07:07:54;;;;;;;20.03;16.40;;;;;;;;;;5054275;28;20413;-52
2021/06/08 07:10:23;;;;;;;22.57;18.67;;;;;;;;;;5053997;28;21117;-52
2021/06/08 07:12:49;;;;;;;25.80;20.03;;;;;;;;;;5053881;28;20920;-52
2021/06/08 07:15:17;;;;;;;22.50;18.00;;;;;;;;;;5053895;28;20941;-53
2021/06/08 07:17:44;;;;;;;19.67;17.60;;;;;;;;;;5054061;28;20406;-52
2021/06/08 07:20:13;;;;;;;25.10;18.37;;;;;;;;;;5053821;28;20414;-53
2021/06/08 07:22:40;;;;;;;23.93;17.10;;;;;;;;;;5053934;28;20405;-53
2021/06/08 07:25:07;;;;;;;12.97;11.67;;;;;;;;;;5053778;28;20409;-53
2021/06/08 07:27:33;;;;;;;15.07;11.30;;;;;;;;;;5053822;28;20501;-53
2021/06/08 07:30:00;;;;;;;16.27;14.00;;;;;;;;;;5053634;28;20515;-53
2021/06/08 07:32:34;;;;;;;17.57;14.40;;;;;;;;;;5053479;28;20444;-54
2021/06/08 07:35:07;;;;;;;19.27;14.97;;;;;;;;;;5053437;28;20467;-53
2021/06/08 07:37:39;;;;;;;17.83;15.63;;;;;;;;;;5053703;28;20401;-53
2021/06/08 07:40:08;;;;;;;24.23;15.17;;;;;;;;;;5053606;28;20413;-53
2021/06/08 07:42:45;;;;;;;19.33;14.87;;;;;;;;;;5042380;28;20973;-54
2021/06/08 07:45:13;;;;;;;19.47;14.97;;;;;;;;;;5051922;28;20833;-52
2021/06/08 07:47:40;;;;;;;17.33;13.50;;;;;;;;;;5054168;28;20401;-52
2021/06/08 07:50:09;;;;;;;15.20;13.67;;;;;;;;;;5053229;28;20403;-52
2021/06/08 07:52:45;;;;;;;15.70;14.03;;;;;;;;;;5052950;28;20405;-52
2021/06/08 07:55:12;;;;;;;14.03;12.27;;;;;;;;;;5052394;28;20551;-53
2021/06/08 07:57:39;;;;;;;15.57;13.97;;;;;;;;;;5053922;28;20908;-55
2021/06/08 08:00:09;;;;;;;15.10;13.50;;;;;;;;;;5057124;28;20425;-54
2021/06/08 08:02:36;;;;;;;15.33;13.83;;;;;;;;;;5057200;28;20433;-54
2021/06/08 08:05:09;;;;;;;16.47;12.80;;;;;;;;;;5057724;28;20917;-54
2021/06/08 08:07:35;;;;;;;16.53;13.37;;;;;;;;;;5055247;28;20397;-54
2021/06/08 08:10:06;;;;;;;14.63;12.97;;;;;;;;;;5055436;28;20786;-54
2021/06/08 08:12:35;;;;;;;13.97;12.30;;;;;;;;;;5055636;28;20468;-54
2021/06/08 08:15:02;;;;;;;14.33;12.83;;;;;;;;;;5056475;28;20445;-55
2021/06/08 08:17:29;;;;;;;13.00;9.80;;;;;;;;;;5056124;28;20894;-55
2021/06/08 08:19:55;;;;;;;11.23;10.13;;;;;;;;;;5055957;28;20428;-55
2021/06/08 08:22:22;;;;;;;20.40;12.40;;;;;;;;;;5055014;28;20405;-53
2021/06/08 08:24:49;;;;;;;13.87;10.43;;;;;;;;;;5054795;28;20410;-54
2021/06/08 08:27:15;;;;;;;17.17;12.00;;;;;;;;;;5054705;28;20439;-54
2021/06/08 08:29:41;;;;;;;14.93;11.43;;;;;;;;;;5054568;28;20505;-54
2021/06/08 08:32:11;;;;;;;12.10;10.83;;;;;;;;;;5054279;28;20758;-53
2021/06/08 08:34:38;;;;;;;11.63;10.43;;;;;;;;;;5053954;28;20456;-54
2021/06/08 08:37:06;;;;;;;12.77;10.90;;;;;;;;;;5053644;28;20398;-54
2021/06/08 08:39:33;;;;;;;15.07;12.00;;;;;;;;;;5053469;28;20516;-54
2021/06/08 08:42:00;;;;;;;12.90;10.83;;;;;;;;;;5052216;28;20772;-54
2021/06/08 08:44:26;;;;;;;14.43;11.30;;;;;;;;;;5052447;28;20819;-54
2021/06/08 08:46:52;;;;;;;13.00;11.10;;;;;;;;;;5052478;28;20410;-54
2021/06/08 08:49:18;;;;;;;13.43;10.50;;;;;;;;;;5052230;28;20426;-54
2021/06/08 08:51:48;;;;;;;13.53;10.97;;;;;;;;;;5052247;28;20455;-54
2021/06/08 08:54:19;;;;;;;12.23;10.83;;;;;;;;;;5051944;28;20527;-54
2021/06/08 08:56:45;;;;;;;11.13;10.03;;;;;;;;;;5052257;28;20862;-54
2021/06/08 08:59:13;;;;;;;15.60;9.93;;;;;;;;;;5050809;28;20425;-54
2021/06/08 09:01:41;;;;;;;11.60;9.93;;;;;;;;;;5051931;28;20401;-54
2021/06/08 09:04:07;;;;;;;10.90;9.27;;;;;;;;;;5051918;28;20508;-54
2021/06/08 09:06:36;;;;;;;10.17;9.13;;;;;;;;;;5051931;28;20429;-54
2021/06/08 09:09:03;;;;;;;10.67;9.37;;;;;;;;;;5051557;28;20412;-54
2021/06/08 09:11:37;;;;;;;14.10;10.03;;;;;;;;;;5051715;28;20408;-54
2021/06/08 09:14:03;;;;;;;10.13;9.30;;;;;;;;;;5051623;28;21046;-54
2021/06/08 09:16:31;;;;;;;10.30;9.33;;;;;;;;;;5051855;28;20402;-54
2021/06/08 09:18:57;;;;;;;11.63;9.37;;;;;;;;;;5051493;28;20417;-54
2021/06/08 09:21:24;;;;;;;9.10;8.30;;;;;;;;;;5051458;28;20390;-55
2021/06/08 09:23:50;;;;;;;10.03;7.37;;;;;;;;;;5051462;28;20910;-54
2021/06/08 09:26:17;;;;;;;8.77;7.83;;;;;;;;;;5050982;28;20421;-54
2021/06/08 09:28:45;;;;;;;7.80;7.10;;;;;;;;;;5051353;28;20452;-54
2021/06/08 09:34:15;;;;;;;7.20;5.17;;;;;;;;;;5050079;28;20830;-54
2021/06/08 09:36:40;;;;;;;5.93;4.97;;;;;;;;;;5051542;28;20866;-54
2021/06/08 09:39:09;;;;;;;7.30;5.97;;;;;;;;;;5051357;28;20445;-54
2021/06/08 09:41:54;;;;;;;5.73;5.33;;;;;;;;;;5051012;28;20404;-55
2021/06/08 09:44:21;;;;;;;5.00;4.60;;;;;;;;;;5051352;28;20795;-54
2021/06/08 09:46:52;;;;;;;8.00;5.50;;;;;;;;;;5051187;28;20384;-55
2021/06/08 09:49:19;;;;;;;7.00;4.70;;;;;;;;;;5051429;28;20483;-54
2021/06/08 09:51:47;;;;;;;4.77;4.40;;;;;;;;;;5050880;28;20874;-54
2021/06/08 09:54:27;;;;;;;3.53;3.23;;;;;;;;;;5050884;28;20444;-54
2021/06/08 09:57:15;;;;;;;3.70;3.50;;;;;;;;;;5051055;28;20411;-54
2021/06/08 09:59:43;;;;;;;8.87;4.60;;;;;;;;;;5051490;28;20441;-54
2021/06/08 10:02:48;;;;;;;4.80;4.20;;;;;;;;;;5050805;28;20995;-54
2021/06/08 10:05:19;;;;;;;3.80;3.50;;;;;;;;;;5028446;28;20973;-55
2021/06/08 10:07:47;;;;;;;6.97;6.27;;;;;;;;;;5046450;28;20406;-55
2021/06/08 10:10:14;;;;;;;5.70;5.27;;;;;;;;;;5050786;28;20417;-54
2021/06/08 10:12:57;;;;;;;7.53;6.70;;;;;;;;;;5050633;28;20401;-55
2021/06/08 10:15:24;;;;;;;9.13;6.97;;;;;;;;;;5050713;28;20484;-55
2021/06/08 10:17:57;;;;;;;10.50;7.30;;;;;;;;;;5050682;28;20408;-55
2021/06/08 10:20:25;;;;;;;6.80;6.20;;;;;;;;;;5050726;28;20413;-55
2021/06/08 10:22:51;;;;;;;8.53;5.67;;;;;;;;;;5050195;28;20402;-55
2021/06/08 10:25:17;;;;;;;7.93;7.23;;;;;;;;;;5050690;28;20401;-55
2021/06/08 10:27:43;;;;;;;7.53;6.87;;;;;;;;;;5050637;28;20488;-55
2021/06/08 10:30:10;;;;;;;7.50;6.83;;;;;;;;;;5050474;28;20465;-55
2021/06/08 10:32:36;;;;;;;7.40;6.70;;;;;;;;;;5050288;28;20994;-55
2021/06/08 10:35:03;;;;;;;8.57;7.10;;;;;;;;;;5050450;28;21020;-55
2021/06/08 10:37:30;;;;;;;8.17;6.63;;;;;;;;;;5052326;28;20483;-55
2021/06/08 10:39:58;;;;;;;7.37;6.50;;;;;;;;;;5054725;28;20417;-55
2021/06/08 10:42:26;;;;;;;8.30;7.60;;;;;;;;;;5054318;28;20470;-55
2021/06/08 10:44:59;;;;;;;6.90;6.30;;;;;;;;;;5054638;28;20455;-55
2021/06/08 10:47:54;;;;;;;7.00;6.33;;;;;;;;;;5054566;28;20401;-55
2021/06/08 10:50:23;;;;;;;11.10;7.33;;;;;;;;;;5054638;28;20412;-55
2021/06/08 10:52:50;;;;;;;8.47;7.67;;;;;;;;;;5054156;28;20408;-55
2021/06/08 10:55:18;;;;;;;9.70;8.10;;;;;;;;;;5054340;28;20798;-55
2021/06/08 10:57:48;;;;;;;9.73;8.57;;;;;;;;;;5054488;28;20479;-55
2021/06/08 11:00:39;;;;;;;9.80;8.87;;;;;;;;;;5053109;28;20429;-55
2021/06/08 11:03:06;;;;;;;9.43;8.53;;;;;;;;;;5051257;28;20420;-55
2021/06/08 11:05:44;;;;;;;11.83;8.63;;;;;;;;;;5054244;28;21121;-55
2021/06/08 11:08:10;;;;;;;12.53;9.77;;;;;;;;;;5053984;28;20405;-55
2021/06/08 11:10:44;;;;;;;10.90;9.80;;;;;;;;;;5054345;28;20408;-55
2021/06/08 11:13:15;;;;;;;11.60;10.40;;;;;;;;;;5053925;28;20393;-55
2021/06/08 11:15:46;;;;;;;10.60;9.07;;;;;;;;;;5054084;28;20444;-55
2021/06/08 11:18:18;;;;;;;10.30;9.30;;;;;;;;;;5053891;28;20946;-55
2021/06/08 11:20:45;;;;;;;11.33;10.33;;;;;;;;;;5054135;28;20455;-55
2021/06/08 11:23:30;;;;;;;10.57;9.67;;;;;;;;;;5053984;28;20424;-54
2021/06/08 11:25:57;;;;;;;11.60;9.90;;;;;;;;;;5054298;28;20412;-55
2021/06/08 11:28:23;;;;;;;11.70;10.50;;;;;;;;;;5054506;28;20427;-55
2021/06/08 11:30:51;;;;;;;9.73;8.73;;;;;;;;;;5054012;28;20406;-55
2021/06/08 11:33:32;;;;;;;9.37;8.57;;;;;;;;;;5053672;28;20998;-55
2021/06/08 11:35:58;;;;;;;9.87;8.97;;;;;;;;;;5053637;28;20893;-55
2021/06/08 11:38:24;;;;;;;10.23;9.40;;;;;;;;;;5053473;28;20946;-55
2021/06/08 11:40:52;;;;;;;9.97;9.00;;;;;;;;;;5053726;28;20397;-55
2021/06/08 11:43:18;;;;;;;11.67;10.67;;;;;;;;;;5053192;28;20480;-55
2021/06/08 11:45:48;;;;;;;11.77;10.67;;;;;;;;;;5053567;28;20773;-55
2021/06/08 11:48:36;;;;;;;11.03;9.93;;;;;;;;;;5053079;28;20181;-55
2021/06/08 11:51:03;;;;;;;11.20;10.10;;;;;;;;;;5053550;28;20807;-55
2021/06/08 11:53:29;;;;;;;10.50;8.77;;;;;;;;;;5053000;28;20413;-55
2021/06/08 11:56:05;;;;;;;9.00;8.20;;;;;;;;;;5053233;28;20972;-55
2021/06/08 11:58:32;;;;;;;8.43;7.73;;;;;;;;;;5053132;28;20787;-54
2021/06/08 12:00:58;;;;;;;9.47;7.63;;;;;;;;;;5053391;28;20858;-55
2021/06/08 12:03:29;;;;;;;9.40;8.17;;;;;;;;;;5053064;28;20882;-55
2021/06/08 12:05:55;;;;;;;9.40;8.60;;;;;;;;;;5052983;28;20398;-55
2021/06/08 12:08:25;;;;;;;8.60;7.87;;;;;;;;;;5053041;28;20894;-55
2021/06/08 12:10:53;;;;;;;9.30;8.57;;;;;;;;;;5053041;28;20401;-55
2021/06/08 12:13:27;;;;;;;10.67;9.77;;;;;;;;;;5052837;28;20484;-55
2021/06/08 12:15:54;;;;;;;10.30;9.40;;;;;;;;;;5052822;28;20459;-55
2021/06/08 12:18:25;;;;;;;11.13;10.03;;;;;;;;;;5052883;28;20405;-55
2021/06/08 12:20:52;;;;;;;11.17;10.13;;;;;;;;;;5052591;28;20433;-55
2021/06/08 12:23:29;;;;;;;13.20;9.93;;;;;;;;;;5052504;28;20410;-55
2021/06/08 12:26:08;;;;;;;10.13;9.10;;;;;;;;;;5052718;28;20897;-55
2021/06/08 12:28:34;;;;;;;12.07;10.87;;;;;;;;;;5051780;28;20448;-55
2021/06/08 12:31:18;;;;;;;13.37;11.20;;;;;;;;;;5039746;28;20418;-55
2021/06/08 12:33:45;;;;;;;10.90;9.80;;;;;;;;;;5038800;28;20432;-56
2021/06/08 12:36:11;;;;;;;11.70;10.67;;;;;;;;;;5047503;28;20462;-55
2021/06/08 12:38:50;;;;;;;11.67;10.67;;;;;;;;;;5041650;28;20440;-55
2021/06/08 12:41:16;;;;;;;13.60;9.47;;;;;;;;;;5037561;28;20401;-55
2021/06/08 12:43:51;;;;;;;9.63;8.80;;;;;;;;;;5031625;28;20504;-55
2021/06/08 12:46:43;;;;;;;11.53;10.07;;;;;;;;;;5032407;28;20985;-56
2021/06/08 12:49:15;;;;;;;10.03;8.97;;;;;;;;;;5035688;28;20525;-56
2021/06/08 12:51:42;;;;;;;10.83;9.70;;;;;;;;;;5037159;28;20421;-56
2021/06/08 12:54:10;;;;;;;8.93;8.10;;;;;;;;;;5041621;28;20421;-56
2021/06/08 12:56:36;;;;;;;9.07;8.27;;;;;;;;;;5049976;28;20879;-56
2021/06/08 12:59:03;;;;;;;9.30;8.50;;;;;;;;;;5051843;28;20421;-56
2021/06/08 13:01:29;;;;;;;9.93;8.93;;;;;;;;;;5050586;28;20398;-56
2021/06/08 13:03:55;;;;;;;7.83;7.23;;;;;;;;;;5052009;28;20401;-55
2021/06/08 13:06:23;;;;;;;9.50;8.53;;;;;;;;;;5043320;28;20398;-56
2021/06/08 13:08:49;;;;;;;8.63;7.73;;;;;;;;;;5052053;28;20459;-56
2021/06/08 13:11:23;;;;;;;9.87;7.30;;;;;;;;;;5039313;28;20442;-56
2021/06/08 13:13:50;;;;;;;8.40;7.47;;;;;;;;;;5044158;28;20412;-55
2021/06/08 13:16:28;;;;;;;8.30;7.50;;;;;;;;;;5043379;28;20456;-55
2021/06/08 13:18:54;;;;;;;8.97;8.10;;;;;;;;;;5051867;28;20413;-55
2021/06/08 13:21:33;;;;;;;9.30;8.27;;;;;;;;;;5044071;28;20405;-55
2021/06/08 13:24:09;;;;;;;9.60;8.70;;;;;;;;;;5048624;28;20419;-55
2021/06/08 13:26:36;;;;;;;10.50;8.57;;;;;;;;;;5050485;28;20432;-55
2021/06/08 13:29:17;;;;;;;10.23;9.20;;;;;;;;;;5051355;28;20429;-55
2021/06/08 13:31:43;;;;;;;9.40;8.60;;;;;;;;;;5051284;28;20480;-55
2021/06/08 13:34:16;;;;;;;9.67;7.90;;;;;;;;;;5048581;28;21126;-55
2021/06/08 13:36:43;;;;;;;8.03;7.27;;;;;;;;;;5039890;28;20410;-55
2021/06/08 13:39:10;;;;;;;9.63;8.40;;;;;;;;;;5042206;28;20429;-55
2021/06/08 13:41:36;;;;;;;9.87;8.87;;;;;;;;;;5037583;28;20970;-55
2021/06/08 13:44:09;;;;;;;9.20;8.40;;;;;;;;;;5050597;28;20401;-55
2021/06/08 13:46:35;;;;;;;13.90;9.10;;;;;;;;;;5050405;28;20413;-55
2021/06/08 13:49:03;;;;;;;10.10;9.10;;;;;;;;;;5050867;28;20456;-55
2021/06/08 13:51:32;;;;;;;10.30;7.80;;;;;;;;;;5051121;28;20459;-55
2021/06/08 13:54:04;;;;;;;11.10;10.00;;;;;;;;;;5050958;28;20898;-55
2021/06/08 13:56:47;;;;;;;11.57;10.43;;;;;;;;;;5051011;28;20479;-56
2021/06/08 14:02:00;;;;;;;12.60;10.30;;;;;;;;;;5051161;28;20772;-54
2021/06/08 14:04:27;;;;;;;10.30;9.13;;;;;;;;;;5050781;28;20443;-56
2021/06/08 14:06:54;;;;;;;12.40;10.77;;;;;;;;;;5050938;28;20765;-55
2021/06/08 14:09:22;;;;;;;10.77;9.70;;;;;;;;;;5050687;28;20910;-55
2021/06/08 14:11:54;;;;;;;12.57;8.90;;;;;;;;;;5050489;28;20397;-55
2021/06/08 14:14:27;;;;;;;15.53;10.20;;;;;;;;;;5050547;28;20494;-55
2021/06/08 14:16:55;;;;;;;10.03;8.90;;;;;;;;;;5050779;28;20496;-56
2021/06/08 14:19:21;;;;;;;10.47;7.87;;;;;;;;;;5050474;28;20424;-56
2021/06/08 14:21:47;;;;;;;14.53;10.00;;;;;;;;;;5050534;28;20818;-56
2021/06/08 14:24:17;;;;;;;10.03;9.03;;;;;;;;;;5050718;28;20401;-55
2021/06/08 14:26:43;;;;;;;9.93;8.67;;;;;;;;;;5050631;28;20434;-56
2021/06/08 14:29:09;;;;;;;13.30;11.87;;;;;;;;;;5050667;28;20409;-55
2021/06/08 14:31:36;;;;;;;11.33;10.13;;;;;;;;;;5050364;28;20401;-56
2021/06/08 14:34:03;;;;;;;12.33;10.53;;;;;;;;;;5050366;28;20558;-55
2021/06/08 14:36:29;;;;;;;9.80;8.90;;;;;;;;;;5050560;28;20455;-56
2021/06/08 14:38:56;;;;;;;10.57;9.57;;;;;;;;;;5051078;28;20504;-54
2021/06/08 14:41:22;;;;;;;10.53;9.63;;;;;;;;;;5050349;28;20409;-55